Time;durP1;ratioP1;P1;durP2;ratioP2;P2;SDS_P1;SDS_P2;PMS_P1;PMS_P2;Temp;Humidity;BMP_temperature;BMP_pressure;BME280_temperature;BME280_humidity;BME280_pressure;Samples;Min_cycle;Max_cycle;Signal;HPM_P1;HPM_P2
2022/05/28 00:00:38;;;;;;;;;;;;;;;-142.75;100.00;77698.38;5012373;28;19925;-66
2022/05/28 00:03:03;;;;;;;;;;;;;;;-142.75;100.00;77684.59;5012287;28;19924;-66
2022/05/28 00:05:29;;;;;;;;;;;;;;;-142.75;100.00;77684.59;5012076;28;19922;-66
2022/05/28 00:07:54;;;;;;;;;;;;;;;-142.75;100.00;77692.47;5011912;28;20000;-66
2022/05/28 00:10:19;;;;;;;;;;;;;;;-142.75;100.00;77686.56;5012219;28;19927;-66
2022/05/28 00:12:45;;;;;;;;;;;;;;;-142.75;100.00;77682.63;5010945;28;19965;-66
2022/05/28 00:15:10;;;;;;;;;;;;;;;-142.75;100.00;77676.72;5012021;28;19929;-66
2022/05/28 00:17:36;;;;;;;;;;;;;;;-142.75;100.00;77676.72;5012134;28;20336;-66
2022/05/28 00:20:02;;;;;;;;;;;;;;;-142.75;100.00;77676.72;5011640;28;20020;-66
2022/05/28 00:22:27;;;;;;;;;;;;;;;-142.75;100.00;77680.66;5012027;28;19917;-66
2022/05/28 00:24:52;;;;;;;;;;;;;;;-142.75;100.00;77676.72;5011831;28;19925;-66
2022/05/28 00:27:17;;;;;;;;;;;;;;;-142.75;100.00;77680.66;5012096;28;19917;-66
2022/05/28 00:29:42;;;;;;;;;;;;;;;-142.75;100.00;77680.66;5011669;28;19932;-66
2022/05/28 00:32:08;;;;;;;;;;;;;;;-142.75;100.00;77678.69;5010574;28;20394;-66
2022/05/28 00:34:34;;;;;;;;;;;;;;;-142.75;100.00;77684.59;5011549;28;19928;-66
2022/05/28 00:36:59;;;;;;;;;;;;;;;-142.75;100.00;77676.72;5011749;28;19921;-66
2022/05/28 00:39:24;;;;;;;;;;;;;;;-142.75;100.00;77670.81;5011427;28;19917;-66
2022/05/28 00:41:49;;;;;;;;;;;;;;;-142.75;100.00;77668.84;5011721;28;19964;-66
2022/05/28 00:44:15;;;;;;;;;;;;;;;-142.75;100.00;77662.94;5010358;28;20271;-66
2022/05/28 00:46:41;;;;;;;;;;;;;;;-142.75;100.00;77666.88;5011818;28;19960;-66
2022/05/28 00:49:08;;;;;;;;;;;;;;;-142.75;100.00;77664.91;5011425;28;20406;-66
2022/05/28 00:51:38;;;;;;;;;;;;;;;-142.75;100.00;77680.66;5011766;28;19917;-66
2022/05/28 00:54:04;;;;;;;;;;;;;;;-142.75;100.00;77680.66;5011539;28;19926;-66
2022/05/28 00:56:30;;;;;;;;;;;;;;;-142.75;100.00;77688.53;5011666;28;19991;-66
2022/05/28 00:58:55;;;;;;;;;;;;;;;-142.75;100.00;77690.50;5011275;28;20276;-66
2022/05/28 01:01:22;;;;;;;;;;;;;;;-142.75;100.00;77680.66;5011417;28;20426;-66
2022/05/28 01:04:07;;;;;;;;;;;;;;;-142.75;100.00;77692.47;5011373;28;20260;-67
2022/05/28 01:06:44;;;;;;;;;;;;;;;-142.75;100.00;77696.41;5011388;28;19944;-66
2022/05/28 01:09:27;;;;;;;;;;;;;;;-142.75;100.00;77686.56;5011054;28;19922;-66
2022/05/28 01:12:20;;;;;;;;;;;;;;;-142.75;100.00;77698.38;5011306;28;20326;-66
2022/05/28 01:14:48;;;;;;;;;;;;;;;-142.75;100.00;77700.34;4995481;28;19967;-66
2022/05/28 01:17:16;;;;;;;;;;;;;;;-142.75;100.00;77700.34;5011307;28;20372;-66
2022/05/28 01:19:51;;;;;;;;;;;;;;;-142.75;100.00;77700.34;5011074;28;19940;-66
2022/05/28 01:22:28;;;;;;;;;;;;;;;-142.75;100.00;77716.09;5011251;28;19925;-66
2022/05/28 01:25:10;;;;;;;;;;;;;;;-142.75;100.00;77722.00;5011250;28;20018;-66
2022/05/28 01:27:42;;;;;;;;;;;;;;;-142.75;100.00;77718.06;5010041;28;20059;-66
2022/05/28 01:30:09;;;;;;;;;;;;;;;-142.75;100.00;77720.03;5011111;28;19917;-66
2022/05/28 01:32:35;;;;;;;;;;;;;;;-142.75;100.00;77731.88;5009922;28;20379;-66
2022/05/28 01:35:03;;;;;;;;;;;;;;;-142.75;100.00;77727.94;5011017;28;20407;-66
2022/05/28 01:37:29;;;;;;;;;;;;;;;-142.75;100.00;77735.81;5011114;28;19917;-66
2022/05/28 01:39:55;;;;;;;;;;;;;;;-142.75;100.00;77731.88;5010878;28;19918;-66
2022/05/28 01:42:21;;;;;;;;;;;;;;;-142.75;100.00;77735.81;5011060;28;20354;-66
2022/05/28 01:44:48;;;;;;;;;;;;;;;-142.75;100.00;77735.81;5010871;28;20319;-66
2022/05/28 01:47:15;;;;;;;;;;;;;;;-142.75;100.00;77731.88;5011160;28;19918;-66
2022/05/28 01:49:41;;;;;;;;;;;;;;;-142.75;100.00;77741.72;5009409;28;19974;-66
2022/05/28 01:52:07;;;;;;;;;;;;;;;-142.75;100.00;77731.88;5010984;28;20367;-66
2022/05/28 01:54:36;;;;;;;;;;;;;;;-142.75;100.00;77735.81;5010953;28;19964;-66
2022/05/28 01:57:01;;;;;;;;;;;;;;;-142.75;100.00;77745.66;5010990;28;19930;-66
2022/05/28 01:59:33;;;;;;;;;;;;;;;-142.75;100.00;77761.41;5010690;28;20089;-66
2022/05/28 02:01:59;;;;;;;;;;;;;;;-142.75;100.00;77751.56;5009656;28;19924;-66
2022/05/28 02:04:25;;;;;;;;;;;;;;;-142.75;100.00;77759.44;5010803;28;20012;-66
2022/05/28 02:06:50;;;;;;;;;;;;;;;-142.75;100.00;77765.34;5010869;28;20024;-66
2022/05/28 02:09:17;;;;;;;;;;;;;;;-142.75;100.00;77771.25;5010685;28;19961;-66
2022/05/28 02:12:03;;;;;;;;;;;;;;;-142.75;100.00;77771.25;5010928;28;19917;-66
2022/05/28 02:14:31;;;;;;;;;;;;;;;-142.75;100.00;77779.13;5012916;28;20306;-66
2022/05/28 02:17:05;;;;;;;;;;;;;;;-142.75;100.00;77783.06;5014420;28;19944;-66
2022/05/28 02:19:39;;;;;;;;;;;;;;;-142.75;100.00;77781.09;5014009;28;19925;-66
2022/05/28 02:22:09;;;;;;;;;;;;;;;-142.75;100.00;77779.13;5014205;28;19941;-66
2022/05/28 02:24:37;;;;;;;;;;;;;;;-142.75;100.00;77781.09;5014154;28;19918;-66
2022/05/28 02:27:06;;;;;;;;;;;;;;;-142.75;100.00;77781.09;5012831;28;19923;-66
2022/05/28 02:29:32;;;;;;;;;;;;;;;-142.75;100.00;77783.06;5012613;28;19921;-66
2022/05/28 02:31:57;;;;;;;;;;;;;;;-142.75;100.00;77794.88;5014037;28;19944;-66
2022/05/28 02:34:22;;;;;;;;;;;;;;;-142.75;100.00;77790.94;5013884;28;19917;-66
2022/05/28 02:36:48;;;;;;;;;;;;;;;-142.75;100.00;77787.00;5013856;28;19932;-66
2022/05/28 02:39:13;;;;;;;;;;;;;;;-142.75;100.00;77790.94;5013733;28;19917;-66
2022/05/28 02:41:38;;;;;;;;;;;;;;;-142.75;100.00;77796.84;5013725;28;20016;-66
2022/05/28 02:44:04;;;;;;;;;;;;;;;-142.75;100.00;77796.84;5013810;28;20136;-67
2022/05/28 02:46:29;;;;;;;;;;;;;;;-142.75;100.00;77787.00;5013796;28;20311;-66
2022/05/28 02:48:55;;;;;;;;;;;;;;;-142.75;100.00;77806.69;5013454;28;19918;-66
2022/05/28 02:51:21;;;;;;;;;;;;;;;-142.75;100.00;77812.59;5013666;28;20406;-66
2022/05/28 02:53:48;;;;;;;;;;;;;;;-142.75;100.00;77818.50;5013580;28;20035;-66
2022/05/28 02:56:13;;;;;;;;;;;;;;;-142.75;100.00;77828.34;5013451;28;19956;-66
2022/05/28 02:58:38;;;;;;;;;;;;;;;-142.75;100.00;77820.47;5013281;28;20015;-66
2022/05/28 03:01:16;;;;;;;;;;;;;;;-142.75;100.00;77820.47;5013675;28;19925;-66
2022/05/28 03:03:42;;;;;;;;;;;;;;;-142.75;100.00;77822.44;5012285;28;20008;-66
2022/05/28 03:06:07;;;;;;;;;;;;;;;-142.75;100.00;77828.34;5013331;28;20007;-66
2022/05/28 03:08:32;;;;;;;;;;;;;;;-142.75;100.00;77834.25;5012987;28;20068;-66
2022/05/28 03:10:57;;;;;;;;;;;;;;;-142.75;100.00;77832.28;5013346;28;19917;-66
2022/05/28 03:13:22;;;;;;;;;;;;;;;-142.75;100.00;77830.31;5013279;28;19926;-66
2022/05/28 03:15:47;;;;;;;;;;;;;;;-142.75;100.00;77834.25;5012988;28;19931;-66
2022/05/28 03:18:13;;;;;;;;;;;;;;;-142.75;100.00;77842.13;5011652;28;19921;-66
2022/05/28 03:20:38;;;;;;;;;;;;;;;-142.75;100.00;77840.16;5013021;28;20036;-66
2022/05/28 03:23:04;;;;;;;;;;;;;;;-142.75;100.00;77840.16;5013122;28;20272;-66
2022/05/28 03:25:29;;;;;;;;;;;;;;;-142.75;100.00;77846.06;5011818;28;20415;-66
2022/05/28 03:27:54;;;;;;;;;;;;;;;-142.75;100.00;77853.94;5012744;28;20008;-65
2022/05/28 03:30:19;;;;;;;;;;;;;;;-142.75;100.00;77844.09;5013003;28;19976;-66
2022/05/28 03:32:44;;;;;;;;;;;;;;;-142.75;100.00;77855.91;4994951;28;19957;-66
2022/05/28 03:35:10;;;;;;;;;;;;;;;-142.75;100.00;77861.81;4993156;28;19925;-66
2022/05/28 03:37:35;;;;;;;;;;;;;;;-142.75;100.00;77863.78;4993161;28;19918;-66
2022/05/28 03:40:01;;;;;;;;;;;;;;;-142.75;100.00;77865.75;4992932;28;19917;-66
2022/05/28 03:42:26;;;;;;;;;;;;;;;-142.75;100.00;77859.84;4993135;28;19922;-66
2022/05/28 03:44:51;;;;;;;;;;;;;;;-142.75;100.00;77877.56;5014784;23;19932;-68
2022/05/28 03:47:16;;;;;;;;;;;;;;;-142.75;100.00;77865.75;4974476;28;19983;-70
2022/05/28 03:49:42;;;;;;;;;;;;;;;-142.75;100.00;77855.91;4991206;28;19963;-69
2022/05/28 03:52:08;;;;;;;;;;;;;;;-142.75;100.00;77848.03;5011707;28;19961;-69
2022/05/28 03:54:33;;;;;;;;;;;;;;;-142.75;100.00;77848.03;5012324;28;19956;-70
2022/05/28 03:57:00;;;;;;;;;;;;;;;-142.75;100.00;77853.94;5012450;28;19925;-69
2022/05/28 03:59:25;;;;;;;;;;;;;;;-142.75;100.00;77855.91;5011999;28;19956;-70
2022/05/28 04:01:50;;;;;;;;;;;;;;;-142.75;100.00;77855.91;5012443;28;20431;-69
2022/05/28 04:04:15;;;;;;;;;;;;;;;-142.75;100.00;77859.84;4994712;28;19917;-70
2022/05/28 04:06:41;;;;;;;;;;;;;;;-142.75;100.00;77863.78;5012208;28;19917;-69
2022/05/28 04:09:06;;;;;;;;;;;;;;;-142.75;100.00;77859.84;5012089;28;19918;-70
2022/05/28 04:11:32;;;;;;;;;;;;;;;-142.75;100.00;77857.88;5012096;28;20012;-70
2022/05/28 04:13:57;;;;;;;;;;;;;;;-142.75;100.00;77869.69;5012115;28;19992;-70
2022/05/28 04:16:23;;;;;;;;;;;;;;;-142.75;100.00;77865.75;5011952;28;19927;-70
2022/05/28 04:18:48;;;;;;;;;;;;;;;-142.75;100.00;77863.78;5011724;28;20421;-70
2022/05/28 04:21:14;;;;;;;;;;;;;;;-142.75;100.00;77859.84;4994375;28;19964;-70
2022/05/28 04:23:39;;;;;;;;;;;;;;;-142.75;100.00;77853.94;5012035;28;19936;-70
2022/05/28 04:26:04;;;;;;;;;;;;;;;-142.75;100.00;77846.06;5011899;28;19925;-68
2022/05/28 04:28:29;;;;;;;;;;;;;;;-142.75;100.00;77865.75;4993867;28;20008;-70
2022/05/28 04:30:55;;;;;;;;;;;;;;;-142.75;100.00;77857.88;5011938;28;20298;-70
2022/05/28 04:33:20;;;;;;;;;;;;;;;-142.75;100.00;77838.19;4994179;28;19917;-69
2022/05/28 04:35:45;;;;;;;;;;;;;;;-142.75;100.00;77840.16;5011348;28;19928;-70
2022/05/28 04:38:10;;;;;;;;;;;;;;;-142.75;100.00;77838.19;5011448;28;19928;-70
2022/05/28 04:40:35;;;;;;;;;;;;;;;-142.75;100.00;77828.34;5011736;28;19918;-69
2022/05/28 04:43:01;;;;;;;;;;;;;;;-142.75;100.00;77814.56;5011666;28;19941;-70
2022/05/28 04:45:26;;;;;;;;;;;;;;;-142.75;100.00;77810.63;5011353;28;19918;-70
2022/05/28 04:47:51;;;;;;;;;;;;;;;-142.75;100.00;77796.84;4993783;28;19917;-70
2022/05/28 04:50:16;;;;;;;;;;;;;;;-142.75;100.00;77794.88;5011637;28;19917;-70
2022/05/28 04:52:41;;;;;;;;;;;;;;;-142.75;100.00;77788.97;5011555;28;19918;-70
2022/05/28 04:55:08;;;;;;;;;;;;;;;-142.75;100.00;77785.03;5011421;28;19930;-70
2022/05/28 04:57:33;;;;;;;;;;;;;;;-142.75;100.00;77771.25;5011462;28;19917;-69
2022/05/28 04:59:58;;;;;;;;;;;;;;;-142.75;100.00;77775.19;5011277;28;19922;-69
2022/05/28 05:02:23;;;;;;;;;;;;;;;-142.75;100.00;77769.28;5011407;28;20570;-67
2022/05/28 05:04:53;;;;;;;;;;;;;;;-142.75;100.00;77763.38;5011404;28;19918;-70
2022/05/28 05:07:18;;;;;;;;;;;;;;;-142.75;100.00;77749.59;5011496;28;19923;-70
2022/05/28 05:09:43;;;;;;;;;;;;;;;-142.75;100.00;77745.66;5011152;28;20016;-70
2022/05/28 05:12:08;;;;;;;;;;;;;;;-142.75;100.00;77735.81;5011216;28;20384;-69
2022/05/28 05:14:34;;;;;;;;;;;;;;;-142.75;100.00;77727.94;5011247;28;19975;-70
2022/05/28 05:16:59;;;;;;;;;;;;;;;-142.75;100.00;77727.94;5011213;28;19923;-70
2022/05/28 05:19:24;;;;;;;;;;;;;;;-142.75;100.00;77727.94;5010994;28;19921;-70
2022/05/28 05:21:53;;;;;;;;;;;;;;;-142.75;100.00;77712.16;4993745;28;19968;-70
2022/05/28 05:24:18;;;;;;;;;;;;;;;-142.75;100.00;77710.19;5011300;28;19964;-70
2022/05/28 05:26:43;;;;;;;;;;;;;;;-142.75;100.00;77708.22;5010995;28;19922;-70
2022/05/28 05:29:08;;;;;;;;;;;;;;;-142.75;100.00;77694.44;4993326;28;19952;-69
2022/05/28 05:31:33;;;;;;;;;;;;;;;-142.75;100.00;77688.53;5011154;28;19923;-68
2022/05/28 05:33:58;;;;;;;;;;;;;;;-142.75;100.00;77680.66;5011114;28;19921;-69
2022/05/28 05:36:24;;;;;;;;;;;;;;;-142.75;100.00;77682.63;5011078;28;19964;-70
2022/05/28 05:38:49;;;;;;;;;;;;;;;-142.75;100.00;77672.78;5010717;28;19917;-69
2022/05/28 05:41:14;;;;;;;;;;;;;;;-142.75;100.00;77660.97;5011103;28;19929;-69
2022/05/28 05:43:39;;;;;;;;;;;;;;;-142.75;100.00;77651.13;5010993;28;20327;-70
2022/05/28 05:46:05;;;;;;;;;;;;;;;-142.75;100.00;77641.28;5010842;28;19921;-70
2022/05/28 05:48:30;;;;;;;;;;;;;;;-142.75;100.00;77643.25;5013159;28;19949;-69
2022/05/28 05:50:55;;;;;;;;;;;;;;;-142.75;100.00;77629.47;5014839;28;19964;-69
2022/05/28 05:53:20;;;;;;;;;;;;;;;-142.75;100.00;77623.56;5014755;28;20383;-69
2022/05/28 05:55:46;;;;;;;;;;;;;;;-142.75;100.00;77601.91;5014492;28;20007;-70
2022/05/28 05:58:11;;;;;;;;;;;;;;;-142.75;100.00;77586.16;5002815;28;19922;-70
2022/05/28 06:00:37;;;;;;;;;;;;;;;-142.75;100.00;77558.59;4995107;28;19918;-70
2022/05/28 06:03:02;;;;;;;;;;;;;;;-142.75;100.00;77570.41;4977456;28;19918;-69
2022/05/28 06:05:27;;;;;;;;;;;;;;;-142.75;100.00;77558.59;4995226;28;19925;-70
2022/05/28 06:07:53;;;;;;;;;;;;;;;-142.75;100.00;77576.31;4994678;28;19953;-70
2022/05/28 06:10:18;;;;;;;;;;;;;;;-142.75;100.00;77564.50;4994812;28;20375;-70
2022/05/28 06:12:43;;;;;;;;;;;;;;;-142.75;100.00;77558.59;4994787;28;19917;-69
2022/05/28 06:15:09;;;;;;;;;;;;;;;-142.75;100.00;77550.72;4994851;28;19922;-70
2022/05/28 06:17:35;;;;;;;;;;;;;;;-142.75;100.00;77558.59;4994686;28;19948;-67
2022/05/28 06:20:01;;;;;;;;;;;;;;;-142.75;100.00;77566.47;4994444;28;19918;-70
2022/05/28 06:22:26;;;;;;;;;;;;;;;-142.75;100.00;77534.97;4994615;28;19945;-70
2022/05/28 06:24:51;;;;;;;;;;;;;;;-142.75;100.00;77523.16;4994483;28;19956;-70
2022/05/28 06:27:16;;;;;;;;;;;;;;;-142.75;100.00;77495.59;4994628;28;20352;-70
2022/05/28 06:29:42;;;;;;;;;;;;;;;-142.75;100.00;77515.28;4994200;28;20024;-70
2022/05/28 06:32:07;;;;;;;;;;;;;;;-142.75;100.00;77529.06;4994452;28;19918;-70
2022/05/28 06:34:32;;;;;;;;;;;;;;;-142.75;100.00;77521.19;4994263;28;19925;-70
2022/05/28 06:36:57;;;;;;;;;;;;;;;-142.75;100.00;77499.53;4994420;28;19918;-70
2022/05/28 06:39:22;;;;;;;;;;;;;;;-142.75;100.00;77471.97;4994051;28;20475;-70
2022/05/28 06:41:48;;;;;;;;;;;;;;;-142.75;100.00;77466.03;4976802;28;19917;-70
2022/05/28 06:44:13;;;;;;;;;;;;;;;-142.75;100.00;77432.56;4994245;28;19936;-70
2022/05/28 06:46:38;;;;;;;;;;;;;;;-142.75;100.00;77462.13;4994041;28;19949;-70
2022/05/28 06:49:03;;;;;;;;;;;;;;;-142.75;100.00;77475.91;4994008;28;20299;-70
2022/05/28 06:51:28;;;;;;;;;;;;;;;-142.75;100.00;77432.56;4994132;28;19972;-70
2022/05/28 06:53:54;;;;;;;;;;;;;;;-142.75;100.00;77381.38;4994079;28;20403;-70
2022/05/28 06:56:19;;;;;;;;;;;;;;;-142.75;100.00;77365.63;4993909;28;19984;-70
2022/05/28 06:58:46;;;;;;;;;;;;;;;-142.75;100.00;77436.50;4993516;28;19953;-69
2022/05/28 07:01:12;;;;;;;;;;;;;;;-142.75;100.00;77464.09;4993957;28;19918;-70
2022/05/28 07:03:37;;;;;;;;;;;;;;;-142.75;100.00;77468.03;4994043;28;20299;-70
2022/05/28 07:06:03;;;;;;;;;;;;;;;-142.75;100.00;77489.69;4993739;28;19925;-70
2022/05/28 07:08:28;;;;;;;;;;;;;;;-142.75;100.00;77487.72;4976021;28;19964;-70
2022/05/28 07:10:55;;;;;;;;;;;;;;;-142.75;100.00;77452.25;4993732;28;19964;-70
2022/05/28 07:13:21;;;;;;;;;;;;;;;-142.75;100.00;77432.56;4993629;28;19918;-71
2022/05/28 07:15:46;;;;;;;;;;;;;;;-142.75;100.00;77418.78;4993499;28;19929;-68
2022/05/28 07:18:11;;;;;;;;;;;;;;;-142.75;100.00;77395.16;4993257;28;19924;-69
2022/05/28 07:20:37;;;;;;;;;;;;;;;-142.75;100.00;77336.09;4976079;28;19925;-69
2022/05/28 07:23:06;;;;;;;;;;;;;;;-142.75;100.00;77340.03;4993422;28;19918;-68
2022/05/28 07:25:31;;;;;;;;;;;;;;;-142.75;100.00;77383.34;4975806;28;19922;-70
2022/05/28 07:27:56;;;;;;;;;;;;;;;-142.75;100.00;77450.28;4993225;28;20005;-70
2022/05/28 07:30:22;;;;;;;;;;;;;;;-142.75;100.00;77406.97;4993243;28;19922;-70
2022/05/28 07:32:47;;;;;;;;;;;;;;;-142.75;100.00;77442.41;4975816;28;19922;-70
2022/05/28 07:35:13;;;;;;;;;;;;;;;-142.75;100.00;77403.03;4975621;28;20012;-70
2022/05/28 07:37:38;;;;;;;;;;;;;;;-142.75;100.00;77343.97;4975861;28;20342;-70
2022/05/28 07:40:04;;;;;;;;;;;;;;;-142.75;100.00;77355.78;4992710;28;19918;-70
2022/05/28 07:42:29;;;;;;;;;;;;;;;-142.75;100.00;77416.81;4993067;28;19929;-70
2022/05/28 07:44:54;;;;;;;;;;;;;;;-142.75;100.00;77477.88;4991263;28;19918;-68
2022/05/28 07:47:19;;;;;;;;;;;;;;;-142.75;100.00;77531.03;4992080;28;20371;-69
2022/05/28 07:49:45;;;;;;;;;;;;;;;-142.75;100.00;77556.63;4991911;28;19954;-68
2022/05/28 07:52:10;;;;;;;;;;;;;;;-142.75;100.00;77596.00;4974725;28;19961;-68
2022/05/28 07:54:35;;;;;;;;;;;;;;;-142.75;100.00;77538.91;4991643;28;19917;-68
2022/05/28 07:57:01;;;;;;;;;;;;;;;-142.75;100.00;77503.47;4992115;28;19918;-68
2022/05/28 07:59:26;;;;;;;;;;;;;;;-142.75;100.00;77538.91;4974055;28;20376;-68
2022/05/28 08:01:51;;;;;;;;;;;;;;;-142.75;100.00;77568.44;4991922;28;19921;-68
2022/05/28 08:04:17;;;;;;;;;;;;;;;-142.75;100.00;77582.22;4992007;28;19922;-68
2022/05/28 08:06:42;;;;;;;;;;;;;;;-142.75;100.00;77619.63;4991980;28;20000;-68
2022/05/28 08:09:09;;;;;;;;;;;;;;;-142.75;100.00;77560.56;4973896;28;19917;-68
2022/05/28 08:11:34;;;;;;;;;;;;;;;-142.75;100.00;77485.75;4991240;28;19922;-68
2022/05/28 08:13:59;;;;;;;;;;;;;;;-142.75;100.00;77479.84;4990734;28;20421;-69
2022/05/28 08:16:25;;;;;;;;;;;;;;;-142.75;100.00;77505.44;4973426;28;19929;-68
2022/05/28 08:18:50;;;;;;;;;;;;;;;-142.75;100.00;77546.78;4990545;28;19922;-68
2022/05/28 08:23:59;;;;;;;;;;;;;;;-142.75;100.00;77566.47;4991134;28;20020;-68
2022/05/28 08:26:25;;;;;;;;;;;;;;;-142.75;100.00;77501.50;4991184;28;20038;-68
2022/05/28 08:28:51;;;;;;;;;;;;;;;-142.75;100.00;77477.88;4973011;28;19949;-68
2022/05/28 08:31:16;;;;;;;;;;;;;;;-142.75;100.00;77422.72;4990669;28;19965;-68
2022/05/28 08:33:42;;;;;;;;;;;;;;;-142.75;100.00;77355.78;4990270;28;20430;-68
2022/05/28 08:36:07;;;;;;;;;;;;;;;-142.75;100.00;77310.50;4990155;28;19929;-69
2022/05/28 08:38:33;;;;;;;;;;;;;;;-142.75;100.00;77271.13;4990359;28;20362;-68
2022/05/28 08:41:05;;;;;;;;;;;;;;;-142.75;100.00;77219.94;4991351;28;19918;-69
2022/05/28 08:43:32;;;;;;;;;;;;;;;-142.75;100.00;77219.94;4990184;28;19940;-69
2022/05/28 08:45:58;;;;;;;;;;;;;;;-142.75;97.61;77196.31;4972862;28;20008;-69
2022/05/28 08:48:27;;;;;;;;;;;;;;;-142.75;89.01;77184.50;4990026;28;20410;-67
2022/05/28 08:50:55;;;;;;;;;;;;;;;-142.75;81.14;77192.38;4990249;28;19918;-68
2022/05/28 08:53:23;;;;;;;;;;;;;;;-142.75;78.05;77180.56;4972783;28;19925;-68
2022/05/28 08:55:50;;;;;;;;;;;;;;;-142.75;82.51;77153.00;4990180;28;20021;-68
2022/05/28 08:58:18;;;;;;;;;;;;;;;-142.75;80.78;77172.69;4990446;28;19956;-68
2022/05/28 09:00:45;;;;;;;;;;;;;;;-142.75;83.39;77217.97;4990957;28;19918;-68
2022/05/28 09:03:16;;;;;;;;;;;;;;;-142.75;88.80;77263.25;4990925;28;19918;-68
2022/05/28 09:05:47;;;;;;;;;;;;;;;-142.75;89.15;77280.97;4973734;28;19987;-68
2022/05/28 09:08:13;;;;;;;;;;;;;;;-142.75;93.71;77338.06;4990764;28;19925;-68
2022/05/28 09:10:45;;;;;;;;;;;;;;;-142.75;100.00;77357.75;4990822;28;20308;-68
2022/05/28 09:13:18;;;;;;;;;;;;;;;-142.75;100.00;77403.03;4990596;28;19925;-68
2022/05/28 09:15:44;;;;;;;;;;;;;;;-142.75;100.00;77440.44;4990757;28;19992;-68
2022/05/28 09:18:10;;;;;;;;;;;;;;;-142.75;100.00;77464.09;4990456;28;20403;-68
2022/05/28 09:20:37;;;;;;;;;;;;;;;-142.75;100.00;77397.13;4990686;28;19961;-69
2022/05/28 09:23:02;;;;;;;;;;;;;;;-142.75;100.00;77373.50;4992750;28;20016;-68
2022/05/28 09:25:31;;;;;;;;;;;;;;;-142.75;100.00;77334.13;4994659;28;20360;-68
2022/05/28 09:28:09;;;;;;;;;;;;;;;-142.75;100.00;77302.63;5010847;28;20334;-68
2022/05/28 09:30:54;;;;;;;;;;;;;;;-142.75;100.00;77269.16;4996859;28;19917;-69
2022/05/28 09:33:46;;;;;;;;;;;;;;;-142.75;100.00;77235.69;5014532;28;20369;-69
2022/05/28 09:36:20;;;;;;;;;;;;;;;-142.75;100.00;77298.69;5011939;28;19929;-68
2022/05/28 09:38:58;;;;;;;;;;;;;;;-142.75;100.00;77353.81;5013888;28;20012;-68
2022/05/28 09:41:32;;;;;;;;;;;;;;;-142.75;100.00;77326.25;5014184;28;19964;-69
2022/05/28 09:44:15;;;;;;;;;;;;;;;-142.75;100.00;77239.63;5013857;28;20433;-67
2022/05/28 09:46:41;;;;;;;;;;;;;;;-142.75;100.00;77170.72;5013639;28;19971;-70
2022/05/28 09:49:23;;;;;;;;;;;;;;;-142.75;97.52;77135.28;5013551;28;19918;-69
2022/05/28 09:51:57;;;;;;;;;;;;;;;-142.75;84.32;77090.00;4996347;28;19921;-69
2022/05/28 09:54:24;;;;;;;;;;;;;;;-142.75;85.41;77048.66;4996431;28;19921;-69
2022/05/28 09:56:58;;;;;;;;;;;;;;;-142.75;89.24;77060.47;4995920;28;19926;-68
2022/05/28 09:59:29;;;;;;;;;;;;;;;-142.75;80.22;77050.63;5013401;28;20305;-69
2022/05/28 10:02:01;;;;;;;;;;;;;;;-142.75;75.23;77111.66;5013815;28;19928;-70
2022/05/28 10:04:29;;;;;;;;;;;;;;;-142.75;75.98;77086.06;4995959;28;20012;-68
2022/05/28 10:06:56;;;;;;;;;;;;;;;-142.75;80.33;77038.81;5013738;28;20016;-68
2022/05/28 10:09:29;;;;;;;;;;;;;;;-142.75;74.59;77007.31;5013433;28;19917;-68
2022/05/28 10:11:55;;;;;;;;;;;;;;;-142.75;73.00;76979.75;5012195;28;19941;-68
2022/05/28 10:14:20;;;;;;;;;;;;;;;-142.75;75.25;76901.00;4995457;28;19921;-68
2022/05/28 10:16:47;;;;;;;;;;;;;;;-142.75;68.60;76928.56;5012696;28;19929;-69
2022/05/28 10:19:24;;;;;;;;;;;;;;;-142.75;69.81;77001.41;4995180;28;20291;-68
2022/05/28 10:21:52;;;;;;;;;;;;;;;-142.75;71.94;77054.56;4994951;28;20004;-69
2022/05/28 10:24:18;;;;;;;;;;;;;;;-142.75;68.98;77050.63;5012729;28;19932;-68
2022/05/28 10:26:45;;;;;;;;;;;;;;;-142.75;72.48;76999.44;5011959;28;19971;-69
2022/05/28 10:29:27;;;;;;;;;;;;;;;-142.75;68.44;76987.63;5012297;28;19972;-69
2022/05/28 10:31:53;;;;;;;;;;;;;;;-142.75;66.58;76958.09;4994860;28;20370;-68
2022/05/28 10:34:21;;;;;;;;;;;;;;;-142.75;68.63;76934.47;5012134;28;19921;-68
2022/05/28 10:36:46;;;;;;;;;;;;;;;-142.75;68.20;76958.09;5012208;28;19936;-68
2022/05/28 10:39:13;;;;;;;;;;;;;;;-142.75;68.44;77007.31;4994880;28;19921;-68
2022/05/28 10:41:40;;;;;;;;;;;;;;;-142.75;68.73;77027.00;5012390;28;19918;-68
2022/05/28 10:44:06;;;;;;;;;;;;;;;-142.75;71.29;76969.91;5012362;28;19969;-69
2022/05/28 10:46:59;;;;;;;;;;;;;;;-142.75;68.30;76944.31;5011807;28;19922;-68
2022/05/28 10:49:51;;;;;;;;;;;;;;;-142.75;63.42;76944.31;4994273;28;19917;-68
2022/05/28 10:52:44;;;;;;;;;;;;;;;-142.75;64.04;76904.94;5012096;28;19996;-69
2022/05/28 10:55:11;;;;;;;;;;;;;;;-142.75;62.98;76877.38;4993960;28;20491;-70
2022/05/28 10:57:40;;;;;;;;;;;;;;;-142.75;62.47;76885.25;5012008;28;19921;-69
2022/05/28 11:00:13;;;;;;;;;;;;;;;-142.75;60.26;76902.97;5011346;28;19941;-68
2022/05/28 11:02:57;;;;;;;;;;;;;;;-142.75;64.99;76895.09;5012133;28;20001;-69
2022/05/28 11:05:22;;;;;;;;;;;;;;;-142.75;66.53;76948.25;5012122;28;20343;-69
2022/05/28 11:07:51;;;;;;;;;;;;;;;-142.75;69.32;76942.34;5011411;28;19952;-69
2022/05/28 11:10:22;;;;;;;;;;;;;;;-142.75;64.86;76920.69;4994559;28;19924;-68
2022/05/28 11:13:02;;;;;;;;;;;;;;;-142.75;65.60;76873.44;5010995;28;19917;-68
2022/05/28 11:15:46;;;;;;;;;;;;;;;-142.75;60.97;76853.75;5010455;28;19921;-68
2022/05/28 11:18:17;;;;;;;;;;;;;;;-142.75;61.39;76897.06;5003432;28;19964;-68
2022/05/28 11:21:07;;;;;;;;;;;;;;;-142.75;64.24;76865.56;4991416;28;19926;-69
2022/05/28 11:23:51;;;;;;;;;;;;;;;-142.75;64.18;76861.63;4991612;28;20291;-68
2022/05/28 11:26:35;;;;;;;;;;;;;;;-142.75;68.12;76904.94;4973856;28;19924;-67
2022/05/28 11:29:06;;;;;;;;;;;;;;;-142.75;66.53;76873.44;4991082;28;20451;-69
2022/05/28 11:31:41;;;;;;;;;;;;;;;-142.75;66.54;76857.69;4974261;28;19918;-69
2022/05/28 11:34:10;;;;;;;;;;;;;;;-142.75;68.75;76843.91;4992103;28;20311;-69
2022/05/28 11:36:40;;;;;;;;;;;;;;;-142.75;67.03;76792.75;4992181;28;19922;-69
2022/05/28 11:39:11;;;;;;;;;;;;;;;-142.75;62.89;76763.22;4974582;28;19972;-69
2022/05/28 11:41:57;;;;;;;;;;;;;;;-142.75;60.04;76802.56;4992290;28;19922;-69
2022/05/28 11:44:33;;;;;;;;;;;;;;;-142.75;65.58;76845.88;4992132;28;20406;-69
2022/05/28 11:47:30;;;;;;;;;;;;;;;-142.75;67.74;76806.50;4974558;28;19953;-70
2022/05/28 11:52:48;;;;;;;;;;;;;;;-142.75;64.88;76822.25;4992370;28;20291;-71
2022/05/28 11:55:16;;;;;;;;;;;;;;;-142.75;63.42;76812.41;4991774;28;19944;-72
2022/05/28 11:57:44;;;;;;;;;;;;;;;-142.75;65.23;76830.13;4992032;28;19918;-69
2022/05/28 12:00:11;;;;;;;;;;;;;;;-142.75;65.30;76830.13;4991841;28;20394;-69
2022/05/28 12:02:42;;;;;;;;;;;;;;;-142.75;65.96;76979.75;4991807;28;19973;-69
2022/05/28 12:05:18;;;;;;;;;;;;;;;-142.75;68.03;76899.03;4991742;28;19933;-69
2022/05/28 12:07:44;;;;;;;;;;;;;;;-142.75;66.64;76893.13;4991781;28;20281;-69
2022/05/28 12:10:28;;;;;;;;;;;;;;;-142.75;66.18;76960.06;4991376;28;19918;-68
2022/05/28 12:12:58;;;;;;;;;;;;;;;-142.75;68.22;76948.25;4991710;28;19937;-68
2022/05/28 12:15:26;;;;;;;;;;;;;;;-142.75;67.74;76940.38;4991540;28;19925;-68
2022/05/28 12:18:01;;;;;;;;;;;;;;;-142.75;67.02;76920.69;4991305;28;19921;-67
2022/05/28 12:20:46;;;;;;;;;;;;;;;-142.75;69.13;76971.88;4991468;28;19926;-67
2022/05/28 12:23:11;;;;;;;;;;;;;;;-142.75;67.71;76999.44;4991047;28;19965;-68
2022/05/28 12:25:38;;;;;;;;;;;;;;;-142.75;68.77;76975.81;4991321;28;20620;-69
2022/05/28 12:28:09;;;;;;;;;;;;;;;-142.75;66.77;76952.19;4973625;28;19917;-68
2022/05/28 12:30:39;;;;;;;;;;;;;;;-142.75;67.96;76964.00;4991389;28;19918;-68